PÓŁMARATON GÓR STOŁOWYCH 2017
Maraton Gór Stołowych
Organizator : Stowarzyszenie TKKF Kompas
Data : 2017-07-02
Miejsce : Pasterka
Dystans : 21 km
Zgłoszonych : 273
Wystartowało : 233
Nie ukończyło : 2
Ukończyło : 231
Na trasie : 0
Pełne wyniki :
Uproszczone :
Lista nagrodzonych : Open i wiekowe
Klasyfikacje w punktach pomiarowych: Start | 7km | 14km | Meta
Klasyfikacje wg kategorii: Wszyscy | OPEN | OPEN KOBIET | K-20 | M-20 | K-30 | M-30 | K-40 | M-40 | K-50 | M-50 | K-60 | M-60
Klasyfikacja wg czasu brutto.
MscZawodnikNumerKlubMiejscowośćKrajKategoriaMkatK/MCzas startuParking
7km
Skaly
14km
Czas
netto
21km
Czas
brutto
21km
Różn.Tempo
min/km
Tempo
km/h
         
1KOZIELSKA Magdalena 254Dynafit teamSZAFLARYK-201K 100:00:0200:42:2001:18:4801:57:21.9501:57:24.15 5:3510,7
2KANTOR Martyna 260Salco Garmin TeamKRAKÓWK-202K 200:00:0200:45:0001:23:0702:02:13.4502:02:15.85+00:04:515:4910,3
3WIŚNIEWSKA Martyna 224adidas Runners WarsawWARSZAWAK-203K 300:00:0200:49:2301:31:0302:13:49.1502:13:51.95+00:16:276:229,4
4MIŚTAK Jola 49Oławska Grupa BiegowaOŁAWAK-301K 400:00:0300:51:2701:33:5302:16:50.1502:16:53.70+00:19:296:309,2
5GOLICZ Aleksandra 110ATRARUDA ŚLĄSKAK-302K 500:00:0600:51:2301:34:5602:19:37.9502:19:44.10+00:22:196:389,0
6GRZYWACZEWSKA Justyna 223CITY TRAIL TeamLUBLINK-204K 600:00:0100:50:4101:34:5302:23:09.3002:23:11.20+00:25:476:498,8
7BAŁYS Katarzyna 256STRONIE ŚLĄSKIEK-303K 700:00:0000:56:3001:42:4802:33:08.0002:33:08.00+00:35:437:178,2
8KUBIŃSKA Magdalena 206ZIELONKIK-304K 800:02:0100:55:3401:41:5802:31:25.5002:33:26.50+00:36:027:128,3
9KRZYSZTOŃ Eliza 257JAWORZNIKK-305K 900:00:0600:58:0301:45:1202:34:16.8502:34:23.20+00:36:597:208,2
10BAZAN Anna 115SZCZECINK-205K 1000:00:0500:56:2301:42:3302:35:29.6002:35:34.75+00:38:107:248,1
11GAWLIK Jadwiga 193NYSA BIEGANYSAK-306K 1100:00:0800:59:5601:49:1602:43:24.2502:43:32.40+00:46:087:467,7
12GAWIŃSKA Magda 181WARSZAWAK-307K 1200:00:0701:01:4201:52:0402:47:20.4002:47:28.25+00:50:047:587,5
13CIOBAN Dominika 37Przemyski Klub BiegaczaPRZEMYŚLK-206K 1300:00:0301:00:3301:53:2902:50:48.7002:50:52.15+00:53:288:087,4
14VON OSSOWSKA Aleksandra 210TJPOZNAŃK-308K 1400:00:1301:05:2501:56:3202:51:29.3502:51:43.30+00:54:198:107,3
15KĄKOL Klaudia 264RunSkiDUSZNIKI ZDRÓJK-207K 1500:00:1501:08:3501:59:5602:54:52.0002:55:07.50+00:57:438:197,2
16WAŁACH-BIŚTA Zuza 231KATOWICEK-309K 1600:00:0901:06:4401:59:3802:56:15.8502:56:24.95+00:59:008:237,1
17WOLFF-STEFANIAK Maria 182POZNAŃK-208K 1700:00:0201:05:2901:59:3502:56:46.8002:56:49.50+00:59:258:257,1
18KOSINSKA Bozena 20WARSZAWAK-401K 1800:00:0201:06:5202:00:4002:58:25.1002:58:27.20+01:01:038:297,1
19ŁUKOWIEC Marlena 15Krzywda TeamDABROWA GÓRNICZAK-3010K 1900:00:0401:06:2202:01:5902:59:24.0502:59:28.55+01:02:048:327,0
20ULIKOWSKA Martyna 269Załoga GórskaGOŚCINOK-209K 2000:00:1901:07:0102:01:3803:00:22.8003:00:41.95+01:03:178:357,0
21BLACHA Agata 169BIŁGORAJK-3011K 2100:00:0701:07:1702:02:5203:01:30.2003:01:37.30+01:04:138:386,9
22RATAJ Zuzanna 249Polonia Bydgoszcz SLA / Kobiety BiegająPOZNAŃK-3012K 2200:00:0901:10:2102:06:2903:06:20.0003:06:29.90+01:09:058:526,8
23KAŁUŻNA Joanna 130MIĘDZYCHÓDK-501K 2300:00:0201:06:4802:03:2503:06:41.2003:06:43.70+01:09:198:536,7
24MAŃKOWSKA Anna 134Drużyna WilkaOLSZTYNK-3013K 2400:00:1401:09:0702:05:1903:06:33.5503:06:48.10+01:09:238:536,8
25KWIATKOWSKA Zuzanna 104SZCZYTNAK-402K 2500:00:1301:10:3002:06:1003:08:41.4503:08:54.65+01:11:308:596,7
26SAWICKA Agnieszka 212Deloitte Adventure TeamPOZNAŃK-3014K 2600:00:1301:10:1502:09:4603:09:27.1503:09:41.10+01:12:169:016,7
27EWERT-KRZEMIENIEWSKA Katarzyna 75WROCLAWK-3015K 2700:00:1501:10:4802:07:5003:09:54.2003:10:09.75+01:12:459:026,6
28JAWORSKA Magdalena 72GB Wielkopolscy BiegaczePOZNAŃK-403K 2800:00:1401:12:4502:09:3203:12:06.6503:12:20.85+01:14:569:086,6
29ZAUCHA Marta 88KŁODZKO przyTWIERDZA BIEGANIEKŁODZKOK-3016K 2900:00:0501:14:1402:13:5003:17:17.7503:17:23.30+01:19:599:236,4
30BOROWICZ Beata 13KWP WrocławOŁAWAK-404K 3000:00:0701:12:1902:11:0203:17:49.5503:17:56.65+01:20:329:256,4
31MĄCZKA Krystyna 255OTK RzeźnikGLIWICEK-601K 3100:00:0901:14:4102:15:2403:18:31.7003:18:40.75+01:21:169:276,3
32ORZECHOWSKA Karolina 251i-SportWARSZAWAK-3017K 3200:00:1901:12:4202:11:5603:18:29.4503:18:49.25+01:21:259:276,3
33PIECUCH Małgorzata 18Przeworska Grupa BiegowaPRZEWORSKK-502K 3300:00:0701:14:3202:14:2903:19:02.5503:19:10.15+01:21:469:286,3
34WESOŁOWSKA Joanna 232GRODZISK MAZOWIECKIK-405K 3400:00:1001:13:2602:12:0803:19:03.7503:19:14.40+01:21:509:286,3
35ŹRÓDLEWSKA Anna 247Night RunnersOSTRÓW WIELKOPOLSKIK-3018K 3500:00:3201:11:4602:14:5303:18:54.6003:19:26.90+01:22:029:286,3
36HAŁADEWICZ Anna 22Karkonosz Running Team Szklarska PorębaSTANOWICEK-406K 3600:00:0701:13:5302:16:0703:23:49.0003:23:56.40+01:26:329:426,2
36BŁĘDKOWSKA Katarzyna 48OPOLEK-3019K 3700:00:0701:14:1102:16:0703:23:49.2003:23:56.40+01:26:329:426,2
38SAMOJLUK- ŚLUSARSKA Bożena 1WARSZAWAK-503K 3800:00:0801:12:0502:12:1203:26:31.7003:26:40.00+01:29:159:506,1
39MARCINKIEWICZ Marta 10Matner Running TeamWROCŁAWK-407K 3900:00:1401:18:0202:21:3803:26:27.3003:26:41.55+01:29:179:496,1
40POLUKORD Asia 227chojnaCHOJNAK-2010K 4000:00:0301:15:1602:19:0503:26:39.6503:26:43.25+01:29:199:506,1
41PAJĄCZEK Dominika 225TYCHYK-3020K 4100:00:0601:15:0702:18:0203:27:29.2003:27:35.35+01:30:119:526,1
42GNIADEK Gosia 122Dabex BoltKRAKÓWK-408K 4200:00:1001:16:5702:21:2403:28:11.1003:28:21.30+01:30:579:546,1
43MAJEWSKA Anna 5AKGŁÓDŹK-2011K 4300:00:2301:17:5702:20:3103:29:34.3503:29:58.25+01:32:349:586,0
44BARAŃSKA Małgorzata 54BBL OpoleOPOLEK-409K 4400:00:0801:18:4602:21:2603:30:00.6503:30:09.40+01:32:4510:006,0
45NOWAK Justyna 95OBORYGENIOBORNIKI ŚLK-3021K 4500:00:1001:13:3402:18:1903:30:19.6003:30:30.20+01:33:0610:006,0
46KRAWCZYK Kamila 135POZNAŃK-2012K 4600:00:0401:13:3902:18:1903:30:30.1003:30:34.45+01:33:1010:016,0
47SPECHT Karolina 146BBL SkraWARSZAWAK-3022K 4700:00:2401:16:2202:21:5703:32:43.5503:33:07.75+01:35:4310:075,9
48SOKOLOWSKA Aneta 46BRUKSELAK-4010K 4800:00:0301:12:1002:18:0303:33:12.2003:33:15.30+01:35:5110:095,9
49WOJTCZAK Małgorzata 94OLEŚNICAK-4011K 4900:00:2201:21:0002:22:3903:33:13.6003:33:36.20+01:36:1210:095,9
50LUBAŃSKA Alicja 43BUKOWICEK-4012K 5000:00:0301:14:2202:20:0803:34:16.9003:34:20.45+01:36:5610:125,9
51SIEDY Jadwiga 213KROMOLINK-3023K 5100:00:2501:23:5502:27:4403:37:59.4503:38:25.20+01:41:0110:225,8
52KAŹMIERCZAK Magdalena 119Supermaraton KaliszKALISZK-3024K 5200:00:1801:23:1202:29:1603:38:15.8003:38:34.05+01:41:0910:235,8
53KAMIENNIK Aleksandra 176KALISZK-3025K 5300:02:0101:22:3102:27:3203:37:11.4003:39:12.40+01:41:4810:205,8
54BANAŚ Zaneta 50KRAKÓWK-2013K 5400:00:1101:21:4702:31:0403:40:44.1003:40:55.30+01:43:3110:305,7
55CHAN Bernadette 173HONG KONGK-3026K 5500:00:1101:22:2002:32:3203:41:25.3503:41:36.55+01:44:1210:325,7
56ZAWADZKA-WASIURA Joanna 160WARSZAWAK-3027K 5600:00:2001:23:0102:31:2303:43:23.1003:43:43.50+01:46:1910:385,6
57MISZCZYK Magdalena 239Aktywne BeskidyBYSTRAK-4013K 5700:00:1101:20:4402:29:0703:43:55.5003:44:06.95+01:46:4210:395,6
58TRYBALSKA Irmina 128WARSZAWAK-3028K 5800:00:2601:25:3802:30:5303:44:58.9003:45:25.25+01:48:0110:425,6
59ZIEMKOWSKA Monika 87BiegoludkiŻARÓWK-4014K 5900:00:0501:23:2402:34:0303:46:20.9003:46:26.15+01:49:0210:465,6
60JANICKA Justyna 14RunSkiDUSZNIKI-ZDRÓJK-4015K 6000:00:1501:27:3602:38:2303:50:17.0003:50:32.35+01:53:0810:575,5
61BERNAS-KUJAWIŃSKA Magdalena 90KALISZK-4016K 6100:00:2201:22:2802:33:4703:53:21.2503:53:43.30+01:56:1911:065,4
62FRĄCZAK Magdalena 144WYSOCKO WIELKIEK-3029K 6200:00:1901:27:4002:38:0303:56:18.1503:56:37.80+01:59:1311:155,3
63JEDNORÓG Dorota 83KB LUPUSOLEŚNICAK-4017K 6300:00:2301:25:1502:32:5603:56:39.0503:57:02.15+01:59:3811:165,3
64WALCZYŃSKA Karolina 190Urodzeni Biegacze www.bornrunners.plBIELSKO-BIALAK-3030K 6400:00:1501:29:2302:38:4503:56:47.7503:57:03.10+01:59:3811:165,3
65NADOLSKA Ania 137WARSZAWAK-4018K 6500:00:0901:26:3602:42:5004:03:12.4004:03:21.75+02:05:5711:345,2
66RAJZER Dominika 12BodyKineticWARSZAWAK-3031K 6600:00:1001:29:3002:47:3804:20:15.6504:20:25.80+02:23:0112:234,8
67STOŁOWSKA Natalia 78WROCŁAWK-3032K 6700:00:1601:39:4803:02:3604:26:31.6004:26:48.50+02:29:2412:414,7
68KOTYSZ Katarzyna 71BBL OpoleOPOLEK-504K 6800:00:2001:32:4602:56:1504:28:23.5504:28:43.55+02:31:1912:464,7
69KOTOWSKA-KOWALSKA Anna 179Gorzeń RunŚLESINK-3033K 6900:00:1001:36:4802:57:3304:28:46.3004:28:56.80+02:31:3212:474,7
70DORDZIK Małgorzata 30ELBLĄGK-505K 7000:00:2501:31:4302:56:1104:29:53.0504:30:18.25+02:32:5412:514,7
71PAWŁOWSKA Danuta 89OTRĘBUSYK-4019K 7100:00:0601:44:4303:16:4404:56:43.5504:56:49.75+02:59:2514:074,2
Niesklasyfikowani
PASIEKA Magda 76NAKŁOK-30DNF DNF DNF DNF DNF--
Znaleziono 72 wynik(ów)